Flugplatz Hannover

Bericht für EDDV

vom 07.03. um 02:20 UTC

Wind 4 kt aus 280°

Sichtweite 10 km oder mehr

aufgebrochene Bewölkung in 3900 ft

Temperatur 1.0°C

Taupunkt 0.0°C

Luftfeuchtigkeit 93%

Luftdruck 1027 hPa

EDDV 070220Z 28004KT 9999 BKN039 01/M00 Q1027

Prognose für EDDV

vom 06.03. um 23:00 UTC

Zwischen 00:00 UTC und 08:00 UTC

Wind 4 kt aus 280°

Sichtweite 10 km oder mehr

aufgebrochene Bewölkung in 3500 ft


Zwischen 02:00 UTC und 07:00 UTC zeitweise mit einer Wahrscheinlichkeit von 30%

Sichtweite 4000 m

feuchter Dunst

aufgebrochene Bewölkung in 1200 ft


Zwischen 08:00 und 10:00 UTC übergehend zu

Wind 10 kt aus 290°

Sichtweite 10 km oder mehr

aufgebrochene Bewölkung in 3500 ft


Zwischen 17:00 und 19:00 UTC übergehend zu

Wind 5 kt aus 260°

Sichtweite 10 km oder mehr

aufgebrochene Bewölkung in 3500 ft


Zwischen 22:00 UTC und 00:00 UTC zeitweise

Sichtweite 4500 m

schwacher Regen

aufgebrochene Bewölkung in 1200 ft

TAF EDDV 062300Z 0700/0724 28004KT 9999 BKN035 PROB30 TEMPO 0702/0707 4000 BR BKN012 BECMG 0708/0710 29010KT BECMG 0717/0719 26005KT TEMPO 0722/0724 4500 -RA BKN012
Impressum